createdAt,value
2017-12-27T00:01:01.152Z,0
2017-12-27T00:02:03.555Z,0
2017-12-27T00:03:05.965Z,0
2017-12-27T00:04:08.378Z,0
2017-12-27T00:05:10.790Z,0
2017-12-27T00:06:13.184Z,0
2017-12-27T00:07:15.602Z,0
2017-12-27T00:08:18.003Z,0
2017-12-27T00:09:20.408Z,0
2017-12-27T00:10:22.825Z,0
2017-12-27T00:11:25.234Z,0
2017-12-27T00:12:27.925Z,0
2017-12-27T00:13:30.335Z,0
2017-12-27T00:14:32.735Z,0
2017-12-27T00:15:35.145Z,0
2017-12-27T00:16:37.843Z,0
2017-12-27T00:17:40.255Z,0
2017-12-27T00:18:42.666Z,0
2017-12-27T00:19:45.081Z,0
2017-12-27T00:20:47.492Z,0
2017-12-27T00:21:49.904Z,0
2017-12-27T00:22:52.606Z,0
2017-12-27T00:23:54.999Z,0
2017-12-27T00:24:57.406Z,0
2017-12-27T00:25:59.859Z,0
2017-12-27T00:27:02.222Z,0
2017-12-27T00:28:04.633Z,0
2017-12-27T00:29:07.029Z,0
2017-12-27T00:30:09.432Z,0
2017-12-27T00:31:11.858Z,0
2017-12-27T00:32:14.260Z,0
2017-12-27T00:33:16.667Z,0
2017-12-27T00:34:19.079Z,0
2017-12-27T00:35:21.482Z,0
2017-12-27T00:36:23.895Z,0
2017-12-27T00:37:26.307Z,0
2017-12-27T00:38:28.705Z,0
2017-12-27T00:39:31.113Z,0
2017-12-27T00:40:33.537Z,0
2017-12-27T00:41:35.940Z,0
2017-12-27T00:42:38.345Z,0
2017-12-27T00:43:40.756Z,0
2017-12-27T00:44:43.449Z,0
2017-12-27T00:45:46.141Z,0
2017-12-27T00:46:48.554Z,0
2017-12-27T00:47:50.960Z,0
2017-12-27T00:48:53.374Z,0
2017-12-27T00:49:55.774Z,0
2017-12-27T00:50:58.189Z,0
2017-12-27T00:52:00.599Z,0
2017-12-27T00:53:03.008Z,0
2017-12-27T00:54:05.417Z,0
2017-12-27T00:55:08.102Z,0
2017-12-27T00:56:10.792Z,0
2017-12-27T00:57:13.495Z,0
2017-12-27T00:58:15.897Z,0
2017-12-27T00:59:18.301Z,0
2017-12-27T01:00:20.988Z,0
2017-12-27T01:01:23.402Z,0
2017-12-27T01:02:26.087Z,0
2017-12-27T01:03:28.503Z,0
2017-12-27T01:04:30.893Z,0
2017-12-27T01:05:33.314Z,0
2017-12-27T01:06:35.720Z,0
2017-12-27T01:07:38.125Z,0
2017-12-27T01:08:40.843Z,0
2017-12-27T01:09:43.534Z,0
2017-12-27T01:10:45.941Z,0
2017-12-27T01:11:48.362Z,0
2017-12-27T01:12:50.774Z,0
2017-12-27T01:13:53.175Z,0
2017-12-27T01:14:55.869Z,0
2017-12-27T01:15:58.285Z,0
2017-12-27T01:17:00.688Z,0
2017-12-27T01:18:03.096Z,0
2017-12-27T01:19:05.794Z,0
2017-12-27T01:20:08.194Z,0
2017-12-27T01:21:10.610Z,0
2017-12-27T01:22:13.013Z,0
2017-12-27T01:23:15.413Z,0
2017-12-27T01:24:17.827Z,0
2017-12-27T01:25:20.235Z,0
2017-12-27T01:26:22.651Z,0
2017-12-27T01:27:25.063Z,0
2017-12-27T01:28:27.462Z,0
2017-12-27T01:29:30.161Z,0
2017-12-27T01:30:32.570Z,0
2017-12-27T01:31:34.974Z,0
2017-12-27T01:32:37.388Z,0
2017-12-27T01:33:39.795Z,0
2017-12-27T01:34:42.201Z,0
2017-12-27T01:35:44.623Z,0
2017-12-27T01:36:47.017Z,0
2017-12-27T01:37:49.429Z,0
2017-12-27T01:38:51.835Z,0
2017-12-27T01:39:54.244Z,0
2017-12-27T01:40:56.654Z,0
2017-12-27T01:41:59.056Z,0
2017-12-27T01:43:01.472Z,0
2017-12-27T01:44:04.219Z,0
2017-12-27T01:45:06.625Z,0
2017-12-27T01:46:09.027Z,0
2017-12-27T01:47:11.443Z,0
2017-12-27T01:48:13.847Z,0
2017-12-27T01:49:16.244Z,0
2017-12-27T01:50:18.652Z,0
2017-12-27T01:51:21.063Z,0
2017-12-27T01:52:23.468Z,0
2017-12-27T01:53:26.165Z,0
2017-12-27T01:54:28.560Z,0
2017-12-27T01:55:30.966Z,0
2017-12-27T01:56:33.696Z,0
2017-12-27T01:57:36.104Z,0
2017-12-27T01:58:38.508Z,0
2017-12-27T01:59:41.198Z,0
2017-12-27T02:00:43.885Z,0
2017-12-27T02:01:46.305Z,0
2017-12-27T02:02:48.713Z,0
2017-12-27T02:03:51.396Z,0
2017-12-27T02:04:53.803Z,0
2017-12-27T02:05:56.205Z,0
2017-12-27T02:06:58.614Z,0
2017-12-27T02:08:01.025Z,0
2017-12-27T02:09:03.478Z,0
2017-12-27T02:10:05.885Z,0
2017-12-27T02:11:08.345Z,0
2017-12-27T02:12:10.693Z,0
2017-12-27T02:13:13.114Z,0
2017-12-27T02:14:15.518Z,0
2017-12-27T02:15:17.926Z,0
2017-12-27T02:16:20.328Z,0
2017-12-27T02:17:22.738Z,0
2017-12-27T02:18:25.140Z,0
2017-12-27T02:19:27.553Z,0
2017-12-27T02:20:29.948Z,0
2017-12-27T02:21:32.355Z,0
2017-12-27T02:22:34.776Z,0
2017-12-27T02:23:37.183Z,0
2017-12-27T02:24:39.873Z,0
2017-12-27T02:25:42.280Z,0
2017-12-27T02:26:44.972Z,0
2017-12-27T02:27:47.386Z,0
2017-12-27T02:28:49.796Z,0
2017-12-27T02:29:52.202Z,0
2017-12-27T02:30:54.605Z,0
2017-12-27T02:31:57.305Z,0
2017-12-27T02:33:00.016Z,0
2017-12-27T02:34:02.715Z,0
2017-12-27T02:35:05.104Z,0
2017-12-27T02:36:07.512Z,0
2017-12-27T02:37:09.926Z,0
2017-12-27T02:38:12.338Z,0
2017-12-27T02:39:15.032Z,0
2017-12-27T02:40:17.441Z,0
2017-12-27T02:41:19.847Z,0
2017-12-27T02:42:22.260Z,0
2017-12-27T02:43:24.667Z,0
2017-12-27T02:44:27.083Z,0
2017-12-27T02:45:29.499Z,0
2017-12-27T02:46:31.892Z,0
2017-12-27T02:47:34.310Z,0
2017-12-27T02:48:36.715Z,0
2017-12-27T02:49:39.127Z,0
2017-12-27T02:50:41.822Z,0
2017-12-27T02:51:44.510Z,0
2017-12-27T02:52:46.910Z,0
2017-12-27T02:53:49.330Z,0
2017-12-27T02:54:51.725Z,0
2017-12-27T02:55:54.422Z,0
2017-12-27T02:56:56.827Z,0
2017-12-27T02:57:59.233Z,0
2017-12-27T02:59:01.935Z,0
2017-12-27T03:00:04.344Z,0
2017-12-27T03:01:06.751Z,0
2017-12-27T03:02:09.166Z,0
2017-12-27T03:03:11.567Z,0
2017-12-27T03:04:13.978Z,0
2017-12-27T03:05:16.379Z,0
2017-12-27T03:06:18.785Z,0
2017-12-27T03:07:21.187Z,0
2017-12-27T03:08:23.604Z,0
2017-12-27T03:09:26.290Z,0
2017-12-27T03:10:28.696Z,0
2017-12-27T03:11:31.105Z,0
2017-12-27T03:12:33.512Z,0
2017-12-27T03:13:35.911Z,0
2017-12-27T03:14:38.324Z,0
2017-12-27T03:15:40.726Z,0
2017-12-27T03:16:43.140Z,0
2017-12-27T03:17:45.534Z,0
2017-12-27T03:18:47.950Z,0
2017-12-27T03:19:50.358Z,0
2017-12-27T03:20:53.048Z,0
2017-12-27T03:21:55.454Z,0
2017-12-27T03:22:57.855Z,0
2017-12-27T03:24:00.262Z,0
2017-12-27T03:25:02.671Z,0
2017-12-27T03:26:05.075Z,0
2017-12-27T03:27:07.482Z,0
2017-12-27T03:28:09.890Z,0
2017-12-27T03:29:12.584Z,0
2017-12-27T03:30:14.990Z,0
2017-12-27T03:31:17.401Z,0
2017-12-27T03:32:19.796Z,0
2017-12-27T03:33:22.214Z,0
2017-12-27T03:34:24.617Z,0
2017-12-27T03:35:27.306Z,0
2017-12-27T03:36:29.716Z,0
2017-12-27T03:37:32.401Z,0
2017-12-27T03:38:34.812Z,0
2017-12-27T03:39:37.218Z,0
2017-12-27T03:40:39.905Z,0
2017-12-27T03:41:42.304Z,0
2017-12-27T03:42:44.708Z,0
2017-12-27T03:43:47.114Z,0
2017-12-27T03:44:49.527Z,0
2017-12-27T03:45:51.927Z,0
2017-12-27T03:46:54.341Z,0
2017-12-27T03:47:56.741Z,0
2017-12-27T03:48:59.441Z,0
2017-12-27T03:50:01.841Z,0
2017-12-27T03:51:04.256Z,0
2017-12-27T03:52:06.955Z,0
2017-12-27T03:53:09.365Z,0
2017-12-27T03:54:11.775Z,0
2017-12-27T03:55:14.180Z,0
2017-12-27T03:56:16.586Z,0
2017-12-27T03:57:18.996Z,0
2017-12-27T03:58:21.396Z,0
2017-12-27T03:59:23.813Z,0
2017-12-27T04:00:26.209Z,0
2017-12-27T04:01:28.907Z,0
2017-12-27T04:02:31.310Z,0
2017-12-27T04:03:33.714Z,0
2017-12-27T04:04:36.124Z,0
2017-12-27T04:05:38.536Z,0
2017-12-27T04:06:40.930Z,0
2017-12-27T04:07:43.636Z,0
2017-12-27T04:08:46.038Z,0
2017-12-27T04:09:48.724Z,0
2017-12-27T04:10:51.136Z,0
2017-12-27T04:11:53.533Z,0
2017-12-27T04:12:55.948Z,0
2017-12-27T04:13:58.350Z,0
2017-12-27T04:15:00.769Z,0
2017-12-27T04:16:03.178Z,0
2017-12-27T04:17:05.581Z,0
2017-12-27T04:18:07.990Z,0
2017-12-27T04:19:10.392Z,0
2017-12-27T04:20:12.793Z,0
2017-12-27T04:21:15.198Z,0
2017-12-27T04:22:17.596Z,0
2017-12-27T04:23:20.289Z,0
2017-12-27T04:24:22.703Z,0
2017-12-27T04:25:25.109Z,0
2017-12-27T04:26:27.509Z,0
2017-12-27T04:27:29.921Z,0
2017-12-27T04:28:32.330Z,0
2017-12-27T04:29:34.741Z,0
2017-12-27T04:30:37.145Z,0
2017-12-27T04:31:39.551Z,0
2017-12-27T04:32:41.963Z,0
2017-12-27T04:33:44.369Z,0
2017-12-27T04:34:46.770Z,0
2017-12-27T04:35:49.184Z,0
2017-12-27T04:36:51.585Z,0
2017-12-27T04:37:53.997Z,0
2017-12-27T04:38:56.397Z,0
2017-12-27T04:39:59.101Z,0
2017-12-27T04:41:01.489Z,0
2017-12-27T04:42:04.187Z,0
2017-12-27T04:43:06.597Z,0
2017-12-27T04:44:08.999Z,0
2017-12-27T04:45:11.409Z,0
2017-12-27T04:46:13.819Z,0
2017-12-27T04:47:16.219Z,0
2017-12-27T04:48:18.636Z,0
2017-12-27T04:49:21.036Z,0
2017-12-27T04:50:23.440Z,0
2017-12-27T04:51:25.843Z,0
2017-12-27T04:52:28.533Z,0
2017-12-27T04:53:30.938Z,0
2017-12-27T04:54:33.351Z,0
2017-12-27T04:55:35.744Z,0
2017-12-27T04:56:38.159Z,0
2017-12-27T04:57:40.561Z,0
2017-12-27T04:58:42.971Z,0
2017-12-27T04:59:45.682Z,0
2017-12-27T05:00:48.082Z,0
2017-12-27T05:01:50.487Z,0
2017-12-27T05:02:52.895Z,0
2017-12-27T05:03:55.298Z,0
2017-12-27T05:04:57.701Z,0
2017-12-27T05:06:00.110Z,0
2017-12-27T05:07:02.526Z,0
2017-12-27T05:08:04.927Z,0
2017-12-27T05:09:07.329Z,0
2017-12-27T05:10:09.739Z,0
2017-12-27T05:11:12.152Z,0
2017-12-27T05:12:14.547Z,0
2017-12-27T05:13:16.960Z,0
2017-12-27T05:14:19.369Z,0
2017-12-27T05:15:21.775Z,0
2017-12-27T05:16:24.476Z,0
2017-12-27T05:17:26.877Z,0
2017-12-27T05:18:29.558Z,0
2017-12-27T05:19:31.964Z,0
2017-12-27T05:20:34.374Z,0
2017-12-27T05:21:36.786Z,0
2017-12-27T05:22:39.187Z,0
2017-12-27T05:23:41.601Z,0
2017-12-27T05:24:44.002Z,0
2017-12-27T05:25:46.704Z,0
2017-12-27T05:26:49.103Z,0
2017-12-27T05:27:51.511Z,0
2017-12-27T05:28:54.215Z,0
2017-12-27T05:29:56.620Z,0
2017-12-27T05:30:59.017Z,0
2017-12-27T05:32:01.441Z,0
2017-12-27T05:33:03.831Z,0
2017-12-27T05:34:06.249Z,0
2017-12-27T05:35:08.656Z,0
2017-12-27T05:36:11.066Z,0
2017-12-27T05:37:13.469Z,0
2017-12-27T05:38:16.165Z,0
2017-12-27T05:39:18.580Z,0
2017-12-27T05:40:20.980Z,0
2017-12-27T05:41:23.392Z,0
2017-12-27T05:42:25.793Z,0
2017-12-27T05:43:28.202Z,0
2017-12-27T05:44:30.892Z,0
2017-12-27T05:45:33.290Z,0
2017-12-27T05:46:35.691Z,0
2017-12-27T05:47:38.104Z,0
2017-12-27T05:48:40.509Z,0
2017-12-27T05:49:42.911Z,0
2017-12-27T05:50:45.317Z,0
2017-12-27T05:51:47.729Z,0
2017-12-27T05:52:50.133Z,0
2017-12-27T05:53:52.543Z,0
2017-12-27T05:54:54.949Z,0
2017-12-27T05:55:57.355Z,0
2017-12-27T05:56:59.772Z,0
2017-12-27T05:58:02.178Z,0
2017-12-27T05:59:04.850Z,0
2017-12-27T06:00:07.257Z,0
2017-12-27T06:01:09.666Z,0
2017-12-27T06:02:12.065Z,0
2017-12-27T06:03:14.759Z,0
2017-12-27T06:04:17.160Z,0
2017-12-27T06:05:19.839Z,0
2017-12-27T06:06:22.262Z,0
2017-12-27T06:07:24.666Z,0
2017-12-27T06:08:27.362Z,0
2017-12-27T06:09:29.763Z,0
2017-12-27T06:10:32.161Z,0
2017-12-27T06:11:34.565Z,0
2017-12-27T06:12:36.979Z,0
2017-12-27T06:13:39.372Z,0
2017-12-27T06:14:42.639Z,0
2017-12-27T06:15:45.104Z,0
2017-12-27T06:16:47.736Z,0
2017-12-27T06:17:50.158Z,0
2017-12-27T06:18:52.563Z,0
2017-12-27T06:19:54.958Z,0
2017-12-27T06:20:57.387Z,0
2017-12-27T06:21:59.783Z,0
2017-12-27T06:23:02.191Z,0
2017-12-27T06:24:04.595Z,0
2017-12-27T06:25:07.000Z,0
2017-12-27T06:26:09.401Z,0
2017-12-27T06:27:11.808Z,0
2017-12-27T06:28:14.208Z,0
2017-12-27T06:29:16.623Z,0
2017-12-27T06:30:19.033Z,0
2017-12-27T06:31:21.429Z,0
2017-12-27T06:32:23.847Z,0
2017-12-27T06:33:26.255Z,0
2017-12-27T06:34:28.661Z,0
2017-12-27T06:35:31.077Z,0
2017-12-27T06:36:33.486Z,0
2017-12-27T06:37:35.883Z,0
2017-12-27T06:38:38.297Z,0
2017-12-27T06:39:40.698Z,0
2017-12-27T06:40:43.103Z,0
2017-12-27T06:41:45.504Z,0
2017-12-27T06:42:47.917Z,0
2017-12-27T06:43:50.326Z,0
2017-12-27T06:44:53.001Z,0
2017-12-27T06:45:55.693Z,0
2017-12-27T06:46:58.375Z,4
2017-12-27T06:48:00.784Z,4
2017-12-27T06:49:03.187Z,0
2017-12-27T06:50:05.591Z,0
2017-12-27T06:51:07.990Z,0
2017-12-27T06:52:10.408Z,4
2017-12-27T06:53:12.803Z,4
2017-12-27T06:54:15.214Z,0
2017-12-27T06:55:17.631Z,4
2017-12-27T06:56:20.312Z,8
2017-12-27T06:57:22.723Z,4
2017-12-27T06:58:25.157Z,4
2017-12-27T06:59:27.536Z,8
2017-12-27T07:00:29.942Z,8
2017-12-27T07:01:32.636Z,8
2017-12-27T07:02:35.031Z,12
2017-12-27T07:03:37.446Z,16
2017-12-27T07:04:39.853Z,20
2017-12-27T07:05:42.529Z,20
2017-12-27T07:06:44.941Z,24
2017-12-27T07:07:47.345Z,24
2017-12-27T07:08:49.741Z,32
2017-12-27T07:09:52.151Z,36
2017-12-27T07:10:54.561Z,40
2017-12-27T07:11:56.964Z,44
2017-12-27T07:12:59.365Z,56
2017-12-27T07:14:01.767Z,60
2017-12-27T07:15:04.179Z,72
2017-12-27T07:16:06.877Z,84
2017-12-27T07:17:09.288Z,92
2017-12-27T07:18:11.959Z,108
2017-12-27T07:19:14.372Z,120
2017-12-27T07:20:16.788Z,132
2017-12-27T07:21:19.193Z,156
2017-12-27T07:22:21.608Z,176
2017-12-27T07:23:24.296Z,204
2017-12-27T07:24:26.711Z,228
2017-12-27T07:25:29.394Z,252
2017-12-27T07:26:32.090Z,272
2017-12-27T07:27:34.766Z,284
2017-12-27T07:28:37.178Z,296
2017-12-27T07:29:39.588Z,308
2017-12-27T07:30:41.987Z,316
2017-12-27T07:31:44.686Z,324
2017-12-27T07:32:47.088Z,332
2017-12-27T07:33:49.495Z,340
2017-12-27T07:34:51.905Z,356
2017-12-27T07:35:54.308Z,368
2017-12-27T07:36:57.000Z,388
2017-12-27T07:37:59.409Z,412
2017-12-27T07:39:02.107Z,440
2017-12-27T07:40:04.520Z,468
2017-12-27T07:41:07.209Z,500
2017-12-27T07:42:09.911Z,536
2017-12-27T07:43:12.325Z,576
2017-12-27T07:44:14.734Z,616
2017-12-27T07:45:17.139Z,652
2017-12-27T07:46:19.547Z,688
2017-12-27T07:47:21.960Z,728
2017-12-27T07:48:24.359Z,772
2017-12-27T07:49:26.773Z,812
2017-12-27T07:50:29.456Z,840
2017-12-27T07:51:31.875Z,864
2017-12-27T07:52:34.391Z,868
2017-12-27T07:53:36.817Z,876
2017-12-27T07:54:39.229Z,888
2017-12-27T07:55:41.642Z,908
2017-12-27T07:56:44.074Z,928
2017-12-27T07:57:46.765Z,944
2017-12-27T07:58:49.184Z,956
2017-12-27T07:59:51.597Z,968
2017-12-27T08:00:53.995Z,980
2017-12-27T08:01:56.407Z,1004
2017-12-27T08:02:58.825Z,1036
2017-12-27T08:04:01.234Z,1088
2017-12-27T08:05:03.643Z,1140
2017-12-27T08:06:06.336Z,1184
2017-12-27T08:07:08.748Z,1212
2017-12-27T08:08:11.170Z,1240
2017-12-27T08:09:13.576Z,1276
2017-12-27T08:10:15.986Z,1312
2017-12-27T08:11:18.392Z,1352
2017-12-27T08:12:20.806Z,1392
2017-12-27T08:13:23.212Z,1432
2017-12-27T08:14:25.631Z,1464
2017-12-27T08:15:28.028Z,1492
2017-12-27T08:16:30.442Z,1516
2017-12-27T08:17:32.851Z,1536
2017-12-27T08:18:35.266Z,1564
2017-12-27T08:19:37.680Z,1624
2017-12-27T08:20:40.090Z,1696
2017-12-27T08:21:42.495Z,1768
2017-12-27T08:22:44.906Z,1852
2017-12-27T08:23:47.606Z,1944
2017-12-27T08:24:50.013Z,2028
2017-12-27T08:25:52.420Z,2116
2017-12-27T08:26:54.838Z,2200
2017-12-27T08:27:57.529Z,2280
2017-12-27T08:28:59.936Z,2368
2017-12-27T08:30:02.345Z,2476
2017-12-27T08:31:05.041Z,2612
2017-12-27T08:32:07.445Z,2788
2017-12-27T08:33:09.863Z,2984
2017-12-27T08:34:12.426Z,3188
2017-12-27T08:35:14.846Z,3372
2017-12-27T08:36:17.256Z,3508
2017-12-27T08:37:19.680Z,3580
2017-12-27T08:38:22.106Z,3612
2017-12-27T08:39:24.515Z,3616
2017-12-27T08:40:26.923Z,3608
2017-12-27T08:41:29.324Z,3604
2017-12-27T08:42:31.729Z,3608
2017-12-27T08:43:34.153Z,3628
2017-12-27T08:44:36.556Z,3660
2017-12-27T08:45:38.972Z,3724
2017-12-27T08:46:41.377Z,3796
2017-12-27T08:47:43.783Z,3860
2017-12-27T08:48:46.480Z,3948
2017-12-27T08:49:48.892Z,4060
2017-12-27T08:50:51.289Z,4188
2017-12-27T08:51:53.702Z,4320
2017-12-27T08:52:56.115Z,4456
2017-12-27T08:53:58.510Z,4592
2017-12-27T08:55:00.924Z,4704
2017-12-27T08:56:03.329Z,4784
2017-12-27T08:57:05.731Z,4856
2017-12-27T08:58:08.144Z,4948
2017-12-27T08:59:10.852Z,5060
2017-12-27T09:00:13.261Z,5200
2017-12-27T09:01:15.671Z,5352
2017-12-27T09:02:18.084Z,5500
2017-12-27T09:03:20.491Z,5644
2017-12-27T09:04:22.908Z,5760
2017-12-27T09:05:25.308Z,5848
2017-12-27T09:06:27.717Z,5916
2017-12-27T09:07:30.137Z,5988
2017-12-27T09:08:32.830Z,6044
2017-12-27T09:09:35.223Z,6080
2017-12-27T09:10:37.635Z,6116
2017-12-27T09:11:40.053Z,6196
2017-12-27T09:12:42.749Z,6312
2017-12-27T09:13:45.159Z,6448
2017-12-27T09:14:48.178Z,6560
2017-12-27T09:15:51.593Z,6656
2017-12-27T09:16:54.009Z,6768
2017-12-27T09:17:56.737Z,6884
2017-12-27T09:18:59.130Z,6984
2017-12-27T09:20:01.556Z,7080
2017-12-27T09:21:03.963Z,7172
2017-12-27T09:22:06.380Z,7204
2017-12-27T09:23:08.790Z,7208
2017-12-27T09:24:11.196Z,7232
2017-12-27T09:25:13.606Z,7316
2017-12-27T09:26:16.298Z,7436
2017-12-27T09:27:18.712Z,7536
2017-12-27T09:28:21.119Z,7568
2017-12-27T09:29:23.828Z,7576
2017-12-27T09:30:26.234Z,7492
2017-12-27T09:31:28.657Z,7412
2017-12-27T09:32:31.075Z,7340
2017-12-27T09:33:33.795Z,7140
2017-12-27T09:34:36.201Z,6852
2017-12-27T09:35:38.605Z,6816
2017-12-27T09:36:41.017Z,6892
2017-12-27T09:37:43.708Z,7412
2017-12-27T09:38:46.107Z,8952
2017-12-27T09:39:48.546Z,8800
2017-12-27T09:40:50.951Z,7988
2017-12-27T09:41:53.348Z,7232
2017-12-27T09:42:55.774Z,7368
2017-12-27T09:43:58.454Z,7792
2017-12-27T09:45:00.866Z,8624
2017-12-27T09:46:03.554Z,9316
2017-12-27T09:47:05.962Z,10868
2017-12-27T09:48:08.378Z,11328
2017-12-27T09:49:10.799Z,10468
2017-12-27T09:50:13.196Z,11044
2017-12-27T09:51:15.601Z,12684
2017-12-27T09:52:18.018Z,12608
2017-12-27T09:53:20.543Z,12868
2017-12-27T09:54:23.889Z,12080
2017-12-27T09:55:26.301Z,10192
2017-12-27T09:56:28.775Z,8096
2017-12-27T09:57:31.184Z,7408
2017-12-27T09:58:33.872Z,6912
2017-12-27T09:59:36.298Z,6648
2017-12-27T10:00:39.042Z,6448
2017-12-27T10:01:41.734Z,6224
2017-12-27T10:02:44.422Z,6000
2017-12-27T10:03:46.840Z,5828
2017-12-27T10:04:49.528Z,5648
2017-12-27T10:05:51.943Z,5464
2017-12-27T10:06:54.494Z,5300
2017-12-27T10:07:56.899Z,5172
2017-12-27T10:08:59.598Z,5104
2017-12-27T10:10:02.002Z,5076
2017-12-27T10:11:04.414Z,5084
2017-12-27T10:12:06.828Z,5124
2017-12-27T10:13:09.236Z,5236
2017-12-27T10:14:11.652Z,5468
2017-12-27T10:15:14.078Z,5868
2017-12-27T10:16:16.475Z,6384
2017-12-27T10:17:18.888Z,6992
2017-12-27T10:18:21.299Z,7504
2017-12-27T10:19:23.713Z,8012
2017-12-27T10:20:26.119Z,8548
2017-12-27T10:21:28.525Z,9056
2017-12-27T10:22:30.933Z,9708
2017-12-27T10:23:33.346Z,10460
2017-12-27T10:24:36.051Z,10536
2017-12-27T10:25:38.468Z,10548
2017-12-27T10:26:40.884Z,10400
2017-12-27T10:27:43.292Z,10228
2017-12-27T10:28:45.707Z,10124
2017-12-27T10:29:48.124Z,10068
2017-12-27T10:30:50.532Z,10072
2017-12-27T10:31:52.939Z,10128
2017-12-27T10:32:55.642Z,10220
2017-12-27T10:33:58.053Z,10284
2017-12-27T10:35:00.461Z,10312
2017-12-27T10:36:02.880Z,10280
2017-12-27T10:37:05.674Z,10152
2017-12-27T10:38:08.938Z,9932
2017-12-27T10:39:11.600Z,9620
2017-12-27T10:40:14.292Z,9244
2017-12-27T10:41:16.974Z,8824
2017-12-27T10:42:19.616Z,8432
2017-12-27T10:43:22.299Z,8028
2017-12-27T10:44:25.084Z,7620
2017-12-27T10:45:28.032Z,7292
2017-12-27T10:46:30.725Z,6848
2017-12-27T10:47:33.838Z,6352
2017-12-27T10:48:36.938Z,5788
2017-12-27T10:49:39.775Z,5360
2017-12-27T10:50:42.559Z,5112
2017-12-27T10:51:45.370Z,4768
2017-12-27T10:52:48.496Z,4456
2017-12-27T10:53:51.302Z,4232
2017-12-27T10:54:54.451Z,4140
2017-12-27T10:55:57.390Z,4080
2017-12-27T10:57:00.166Z,4028
2017-12-27T10:58:03.007Z,3864
2017-12-27T10:59:05.907Z,3660
2017-12-27T11:00:08.662Z,3540
2017-12-27T11:01:11.494Z,3696
2017-12-27T11:02:14.405Z,3892
2017-12-27T11:03:17.271Z,4024
2017-12-27T11:04:20.070Z,4320
2017-12-27T11:05:22.846Z,4216
2017-12-27T11:06:25.565Z,3896
2017-12-27T11:07:28.320Z,3428
2017-12-27T11:08:31.485Z,3148
2017-12-27T11:09:34.324Z,3140
2017-12-27T11:10:37.452Z,3340
2017-12-27T11:11:40.375Z,3904
2017-12-27T11:12:43.071Z,4352
2017-12-27T11:13:45.899Z,4436
2017-12-27T11:14:48.705Z,4224
2017-12-27T11:15:51.482Z,3764
2017-12-27T11:16:53.899Z,3252
2017-12-27T11:17:56.310Z,2988
2017-12-27T11:18:58.758Z,2868
2017-12-27T11:20:01.942Z,2836
2017-12-27T11:21:04.332Z,2848
2017-12-27T11:22:06.752Z,3032
2017-12-27T11:23:09.161Z,3784
2017-12-27T11:24:11.567Z,4448
2017-12-27T11:25:13.985Z,4760
2017-12-27T11:26:16.396Z,4928
2017-12-27T11:27:18.869Z,5032
2017-12-27T11:28:21.291Z,5344
2017-12-27T11:29:23.990Z,5356
2017-12-27T11:30:26.671Z,5228
2017-12-27T11:31:29.087Z,5180
2017-12-27T11:32:31.504Z,5168
2017-12-27T11:33:33.918Z,5340
2017-12-27T11:34:36.333Z,5472
2017-12-27T11:35:39.053Z,5444
2017-12-27T11:36:41.465Z,5548
2017-12-27T11:37:43.873Z,5420
2017-12-27T11:38:46.568Z,5236
2017-12-27T11:39:48.984Z,4832
2017-12-27T11:40:51.397Z,4296
2017-12-27T11:41:53.804Z,3976
2017-12-27T11:42:56.222Z,3460
2017-12-27T11:43:58.629Z,3676
2017-12-27T11:45:01.331Z,3788
2017-12-27T11:46:03.753Z,3172
2017-12-27T11:47:06.184Z,3124
2017-12-27T11:48:08.888Z,3144
2017-12-27T11:49:11.735Z,3572
2017-12-27T11:50:14.323Z,3868
2017-12-27T11:51:16.744Z,4264
2017-12-27T11:52:19.154Z,3932
2017-12-27T11:53:21.560Z,3164
2017-12-27T11:54:23.985Z,3024
2017-12-27T11:55:26.391Z,2960
2017-12-27T11:56:29.078Z,2768
2017-12-27T11:57:31.538Z,2676
2017-12-27T11:58:34.031Z,2520
2017-12-27T11:59:36.760Z,2460
2017-12-27T12:00:39.191Z,2324
2017-12-27T12:01:41.591Z,2040
2017-12-27T12:02:44.019Z,1876
2017-12-27T12:03:46.429Z,2048
2017-12-27T12:04:48.877Z,2060
2017-12-27T12:05:51.404Z,2152
2017-12-27T12:06:53.816Z,2124
2017-12-27T12:07:56.225Z,1860
2017-12-27T12:08:58.648Z,1740
2017-12-27T12:10:01.066Z,1772
2017-12-27T12:11:03.483Z,1716
2017-12-27T12:12:06.172Z,1632
2017-12-27T12:13:08.585Z,1508
2017-12-27T12:14:11.079Z,1464
2017-12-27T12:15:13.609Z,1328
2017-12-27T12:16:16.213Z,1280
2017-12-27T12:17:18.621Z,1420
2017-12-27T12:18:21.012Z,1408
2017-12-27T12:19:23.441Z,1468
2017-12-27T12:20:26.116Z,1452
2017-12-27T12:21:28.527Z,1436
2017-12-27T12:22:31.228Z,1544
2017-12-27T12:23:33.634Z,1572
2017-12-27T12:24:36.050Z,1652
2017-12-27T12:25:39.029Z,1680
2017-12-27T12:26:41.442Z,1748
2017-12-27T12:27:44.150Z,1828
2017-12-27T12:28:46.563Z,1876
2017-12-27T12:29:48.971Z,2092
2017-12-27T12:30:51.384Z,2156
2017-12-27T12:31:54.057Z,2364
2017-12-27T12:32:56.475Z,2540
2017-12-27T12:33:59.202Z,2160
2017-12-27T12:35:02.252Z,1860
2017-12-27T12:36:04.662Z,1768
2017-12-27T12:37:07.064Z,1760
2017-12-27T12:38:09.480Z,1992
2017-12-27T12:39:11.893Z,2184
2017-12-27T12:40:14.583Z,1984
2017-12-27T12:41:16.998Z,1836
2017-12-27T12:42:19.408Z,1852
2017-12-27T12:43:21.811Z,1996
2017-12-27T12:44:24.240Z,2304
2017-12-27T12:45:26.648Z,2676
2017-12-27T12:46:29.060Z,3124
2017-12-27T12:47:31.478Z,3404
2017-12-27T12:48:33.886Z,3316
2017-12-27T12:49:36.295Z,3476
2017-12-27T12:50:38.992Z,3348
2017-12-27T12:51:41.400Z,3032
2017-12-27T12:52:43.807Z,2952
2017-12-27T12:53:46.229Z,2896
2017-12-27T12:54:48.641Z,2904
2017-12-27T12:55:51.058Z,3116
2017-12-27T12:56:53.462Z,2868
2017-12-27T12:57:55.873Z,2864
2017-12-27T12:58:58.581Z,2740
2017-12-27T13:00:00.987Z,2504
2017-12-27T13:01:03.402Z,2412
2017-12-27T13:02:06.098Z,2460
2017-12-27T13:03:08.506Z,2452
2017-12-27T13:04:10.925Z,2468
2017-12-27T13:05:13.619Z,2444
2017-12-27T13:06:16.036Z,2476
2017-12-27T13:07:18.459Z,2476
2017-12-27T13:08:20.863Z,2644
2017-12-27T13:09:23.863Z,2904
2017-12-27T13:10:26.585Z,3036
2017-12-27T13:11:28.990Z,3168
2017-12-27T13:12:31.399Z,3216
2017-12-27T13:13:33.808Z,3344
2017-12-27T13:14:36.212Z,3240
2017-12-27T13:15:38.637Z,3012
2017-12-27T13:16:41.054Z,2960
2017-12-27T13:17:43.451Z,3152
2017-12-27T13:18:46.147Z,3396
2017-12-27T13:19:48.556Z,3464
2017-12-27T13:20:51.249Z,3444
2017-12-27T13:21:53.691Z,3312
2017-12-27T13:22:56.376Z,3036
2017-12-27T13:23:58.809Z,2784
2017-12-27T13:25:01.365Z,2624
2017-12-27T13:26:04.110Z,2536
2017-12-27T13:27:06.738Z,2460
2017-12-27T13:28:09.465Z,2356
2017-12-27T13:29:11.865Z,2216
2017-12-27T13:30:14.625Z,2028
2017-12-27T13:31:17.038Z,1896
2017-12-27T13:32:19.530Z,1832
2017-12-27T13:33:22.133Z,1768
2017-12-27T13:34:24.552Z,1680
2017-12-27T13:35:26.957Z,1688
2017-12-27T13:36:29.371Z,1784
2017-12-27T13:37:31.782Z,1720
2017-12-27T13:38:34.205Z,1548
2017-12-27T13:39:36.609Z,1404
2017-12-27T13:40:39.314Z,1472
2017-12-27T13:41:41.709Z,1540
2017-12-27T13:42:44.427Z,1520
2017-12-27T13:43:47.120Z,1456
2017-12-27T13:44:49.521Z,1520
2017-12-27T13:45:52.013Z,1608
2017-12-27T13:46:54.424Z,1588
2017-12-27T13:47:57.159Z,1516
2017-12-27T13:48:59.559Z,1440
2017-12-27T13:50:01.974Z,1340
2017-12-27T13:51:04.385Z,1236
2017-12-27T13:52:06.786Z,1168
2017-12-27T13:53:09.499Z,1156
2017-12-27T13:54:11.904Z,1356
2017-12-27T13:55:14.314Z,1532
2017-12-27T13:56:16.719Z,1552
2017-12-27T13:57:19.139Z,1532
2017-12-27T13:58:21.544Z,1452
2017-12-27T13:59:23.966Z,1352
2017-12-27T14:00:26.368Z,1252
2017-12-27T14:01:28.780Z,1184
2017-12-27T14:02:31.486Z,1100
2017-12-27T14:03:33.898Z,1060
2017-12-27T14:04:36.602Z,1052
2017-12-27T14:05:39.002Z,1056
2017-12-27T14:06:41.972Z,1060
2017-12-27T14:07:44.673Z,1052
2017-12-27T14:08:47.367Z,1048
2017-12-27T14:09:49.773Z,1016
2017-12-27T14:10:52.190Z,896
2017-12-27T14:11:54.596Z,780
2017-12-27T14:12:57.012Z,696
2017-12-27T14:13:59.713Z,736
2017-12-27T14:15:02.136Z,772
2017-12-27T14:16:04.543Z,740
2017-12-27T14:17:07.232Z,684
2017-12-27T14:18:09.648Z,644
2017-12-27T14:19:12.071Z,652
2017-12-27T14:20:14.476Z,644
2017-12-27T14:21:16.884Z,632
2017-12-27T14:22:19.304Z,604
2017-12-27T14:23:21.712Z,568
2017-12-27T14:24:24.126Z,576
2017-12-27T14:25:26.550Z,556
2017-12-27T14:26:28.944Z,532
2017-12-27T14:27:31.360Z,540
2017-12-27T14:28:33.776Z,624
2017-12-27T14:29:36.224Z,716
2017-12-27T14:30:38.598Z,752
2017-12-27T14:31:41.017Z,748
2017-12-27T14:32:43.436Z,704
2017-12-27T14:33:46.123Z,704
2017-12-27T14:34:48.827Z,676
2017-12-27T14:35:51.238Z,596
2017-12-27T14:36:53.646Z,504